Nearby METAR Reports

 

KCOE - Coeur D'alene, Idaho, USA
Distance from station: SSE 4mi, 7km
Updated: Tue, 16-Oct-2018 10:56am PDT
Clear
Clear
 Wind from ENE
Wind: ENE 8 mph , 13 km/h
Temperature: 48°F , 9°C
Wind Chill: 44°F , 7°C
Dew Point: 34°F , 1°C
Humidity: 58%
Barometer: 30.46 inHg , 1031.5 hPa
Clouds: Clear
Visibility: 10 miles , 16 km
2018/10/16 17:56 KCOE 161756Z AUTO 07007KT 10SM CLR 09/01 A3046 RMK AO2 SLP344 6//// T00940011 10094 21017 50001 PNO $
KSFF - Spokane/Felts, Washington, USA
Distance from station: WSW 24mi, 39km
Updated: Tue, 16-Oct-2018 10:53am PDT
Clear
Clear
 Wind from calm
Wind: Calm
Temperature: 48°F , 9°C
Dew Point: 34°F , 1°C
Humidity: 58%
Barometer: 30.46 inHg , 1031.5 hPa
Clouds: Clear
Visibility: 10 miles , 16 km
2018/10/16 17:53 KSFF 161753Z 00000KT 10SM CLR 09/01 A3046 RMK AO2 SLP324 T00940011 10094 21006 50001
 
KDEW - Deer Park, Washington, USA
Distance from station: WNW 29mi, 47km
Updated: Tue, 16-Oct-2018 10:53am PDT
Clear
Clear
 Wind from ENE
Wind: ENE 6 mph , 9 km/h
Temperature: 52°F , 11°C
Dew Point: 30°F , -1°C
Humidity: 44%
Barometer: 30.46 inHg , 1031.5 hPa
Clouds: Clear
Visibility: 10 miles , 16 km
2018/10/16 17:53 KDEW 161753Z AUTO 06005KT 10SM CLR 11/M01 A3046 RMK AO2 SLP329 I6000 T01061011 10106 21067 50002
KSZT - Wall/Sandpoint, Idaho, USA
Distance from station: NNE 35mi, 56km
Updated: Tue, 16-Oct-2018 11:15am PDT
Clear
Clear
 Wind from NE
Wind: NE 10 mph , 17 km/h
Temperature: 50°F , 10°C
Wind Chill: 46°F , 8°C
Dew Point: 32°F , 0°C
Humidity: 50%
Barometer: 30.46 inHg , 1031.5 hPa
Clouds: Clear
Visibility: 10 miles , 16 km
2018/10/16 18:15 KSZT 161815Z AUTO 04009KT 10SM CLR 10/00 A3046 RMK AO2
 
KGEG - Spokane/Metro, Washington, USA
Distance from station: WSW 35mi, 57km
Updated: Tue, 16-Oct-2018 10:53am PDT
Few Clouds
Few Clouds
 Wind from NE
Wind: NE 9 mph , 15 km/h
Temperature: 46°F , 8°C
Wind Chill: 41°F , 5°C
Dew Point: 30°F , -1°C
Humidity: 53%
Barometer: 30.45 inHg , 1031.2 hPa
Clouds: Few Clouds
Visibility: 10 miles , 16 km
Cloud details: Few Clouds 25000 ft
2018/10/16 17:53 KGEG 161753Z 04008KT 10SM FEW250 08/M01 A3045 RMK AO2 SLP320 T00831006 10083 20011 50003
KSKA - Fairchild Afb, Washington, USA
Distance from station: WSW 40mi, 65km
Updated: Tue, 16-Oct-2018 10:58am PDT
Clear
Clear
 Wind from ENE
Wind: ENE 10 mph , 17 km/h
Temperature: 48°F , 9°C
Wind Chill: 44°F , 7°C
Dew Point: 30°F , -1°C
Humidity: 50%
Barometer: 30.44 inHg , 1030.8 hPa
Clouds: Clear
Visibility: 10 miles , 16 km
2018/10/16 17:58 KSKA 161758Z 06009KT 10SM CLR 09/M01 A3044 RMK AO2A SLP320 T00921007 10092 21010 50004 $